Sparkill, NY (10976)

5:19 AM EDT on September 22, 2019 (GMT -0400)
Woodcrest | | Change Station
Active Advisory: Special Statement

Elev 98 ft 41.03 °N, 73.94 °W | Updated 20 seconds ago

Clear
Clear
55.4 °F
Feels Like 55.4 °F
N
0
Wind Variable Wind from South
Gusts 0.0 mph

Today
High -- | Low -- °F
--% Chance of Precip.
Yesterday
High -- | Low -- °F
Precip. -- in
Pressure 30.16 in
Visibility 7.0 miles
Clouds Clear
Dew Point 50 °F
Humidity 82%
Rainfall 0.00 in
Snow Depth Not available.
6:42 AM 6:53 PM
Waning Gibbous, 47% visible
METAR KHPN 220856Z 00000KT 7SM CLR 15/14 A3017 RMK AO2 SLP211 T01500139 55002
Pressure 30.16 in
Visibility 7.0 miles
Clouds Clear
Dew Point 50 °F
Humidity 82%
Rainfall 0.00 in
Snow Depth Not available.
6:42 AM 6:53 PM
Waning Gibbous, 47% visible
METAR KHPN 220856Z 00000KT 7SM CLR 15/14 A3017 RMK AO2 SLP211 T01500139 55002

Get Your Daily Forecast Email!

Thanks for signing up!

Be on the lookout for a verification email in your inbox.

You'll start receiving severe weather alerts in your inbox..

×

10-Day Weather Forecast

Almanac

Astronomy

Sep. 22, 2019 Rise Set
Actual Time
Civil Twilight
Nautical Twilight
Astronomical Twilight
Moon
Length of Visible Light
Length of Day
Tomorrow will be .
, % of the Moon is Illuminated

Today's Extremes

State Highs State Lows

Community

WunderPhotos

Category 6

Welcome to Category 6. This is the collective home for Weather Underground's featured writeups by Dr. Jeff Masters (right), Bob Henson (left), Chris Burt, and other regular contributors.

Nearby

Air Quality

  Air Quality AQ Index Pollutant
Not available.

Snow Depth

Station Depth Elevation

Earthquake Activity

City Distance Mag. Time & Date
Minimum magnitude displayed is 2.5.

Coastal Water Temperatures

Place Temperature

Stations

Nearby Weather Stations

Station Location Temp. Windchill Dew Point Humidity Wind Precip. Elev Updated Type
                   

Watches & Warnings

Special Statement
Issued: 5:09 AM EDT Sep. 22, 2019 – National Weather Service

River Valley fog and patchy fog elsewhere will reduce visibilities
to less than a mile, and in some cases may be locally dense. Be
prepared for rapidly changing visibilities if traveling this
morning and use low beam headlights. Visibilities are expected to
improve after 7 am.



509 am EDT sun Sep 22 2019

River Valley fog and patchy fog elsewhere will reduce visibilities
to less than a mile, and in some cases may be locally dense. Be
prepared for rapidly changing visibilities if traveling this
morning and use low beam headlights. Visibilities are expected to
improve after 7 am.